Time;durP1;ratioP1;P1;durP2;ratioP2;P2;SDS_P1;SDS_P2;PMS_P1;PMS_P2;Temp;Humidity;BMP_temperature;BMP_pressure;BME280_temperature;BME280_humidity;BME280_pressure;Samples;Min_cycle;Max_cycle;Signal;HPM_P1;HPM_P2
2021/06/21 00:02:04;;;;;;;11.80;9.82;;;;;;;21.26;100.00;100786.94;4845075;29;20037;-77
2021/06/21 00:04:50;;;;;;;13.48;10.73;;;;;;;21.39;100.00;100784.41;4845476;29;20539;-77
2021/06/21 00:07:36;;;;;;;13.50;10.60;;;;;;;21.26;100.00;100786.94;4844653;29;20045;-77
2021/06/21 00:10:22;;;;;;;12.30;10.20;;;;;;;21.30;100.00;100791.13;4845046;29;20041;-77
2021/06/21 00:13:08;;;;;;;11.23;9.90;;;;;;;21.40;100.00;100786.97;4845346;29;20037;-77
2021/06/21 00:15:54;;;;;;;11.38;9.77;;;;;;;21.30;100.00;100791.13;4847028;29;20027;-77
2021/06/21 00:18:40;;;;;;;14.15;10.82;;;;;;;21.22;100.00;100793.41;4847802;29;20070;-77
2021/06/21 00:21:26;;;;;;;11.68;10.48;;;;;;;21.28;100.00;100784.19;4845483;29;20456;-78
2021/06/21 00:24:12;;;;;;;12.43;9.93;;;;;;;21.31;100.00;100784.88;4845161;29;20030;-78
2021/06/21 00:26:58;;;;;;;15.73;10.63;;;;;;;21.07;100.00;100786.34;4845582;29;20042;-78
2021/06/21 00:29:44;;;;;;;11.90;10.20;;;;;;;20.99;100.00;100780.59;4845039;29;20360;-78
2021/06/21 00:32:30;;;;;;;14.15;11.25;;;;;;;21.06;100.00;100779.25;4844748;29;20463;-77
2021/06/21 00:35:17;;;;;;;14.95;10.75;;;;;;;21.21;100.00;100789.03;4844698;29;20337;-78
2021/06/21 00:38:05;;;;;;;11.88;10.65;;;;;;;21.16;100.00;100774.25;4844743;29;20098;-78
2021/06/21 00:40:51;;;;;;;14.55;10.32;;;;;;;21.14;100.00;100787.66;4844969;29;20030;-78
2021/06/21 00:43:36;;;;;;;14.38;10.23;;;;;;;21.33;100.00;100777.63;4844686;29;20034;-78
2021/06/21 00:46:22;;;;;;;12.07;10.65;;;;;;;21.12;100.00;100772.72;4844129;29;20045;-77
2021/06/21 00:49:08;;;;;;;12.45;10.80;;;;;;;21.07;100.00;100766.81;4844426;29;20448;-78
2021/06/21 00:51:56;;;;;;;15.85;11.00;;;;;;;21.17;100.00;100767.97;4845022;29;20033;-78
2021/06/21 00:54:44;;;;;;;13.00;10.45;;;;;;;21.17;100.00;100765.31;4844450;29;20467;-78
2021/06/21 00:57:33;;;;;;;16.38;10.43;;;;;;;21.12;100.00;100759.41;4844832;29;20121;-78
2021/06/21 01:00:21;;;;;;;17.23;10.80;;;;;;;21.14;100.00;100758.34;4844245;29;20029;-78
2021/06/21 01:03:07;;;;;;;12.63;10.70;;;;;;;21.08;100.00;100764.06;4843795;29;20022;-78
2021/06/21 01:05:53;;;;;;;13.68;10.32;;;;;;;21.07;100.00;100764.16;4843773;29;20034;-78
2021/06/21 01:08:39;;;;;;;12.05;10.68;;;;;;;21.19;100.00;100760.75;4844085;29;20034;-78
2021/06/21 01:11:38;;;;;;;12.15;10.77;;;;;;;21.17;100.00;100765.31;4843808;29;20117;-78
2021/06/21 01:14:30;;;;;;;14.13;10.68;;;;;;;21.28;100.00;100754.84;4843785;29;20376;-78
2021/06/21 01:17:27;;;;;;;13.65;11.60;;;;;;;21.04;100.00;100759.88;4843500;29;20041;-78
2021/06/21 01:20:50;;;;;;;14.70;11.13;;;;;;;20.99;100.00;100759.28;4843877;29;20041;-78
2021/06/21 01:23:53;;;;;;;11.88;10.45;;;;;;;21.05;100.00;100761.56;4844490;29;20026;-78
2021/06/21 01:26:47;;;;;;;18.08;10.95;;;;;;;21.01;100.00;100759.22;4843732;29;20062;-78
2021/06/21 01:29:55;;;;;;;17.48;10.95;;;;;;;21.09;100.00;100756.94;4843869;29;20375;-78
2021/06/21 01:32:58;;;;;;;13.00;10.65;;;;;;;20.94;100.00;100756.00;4843761;29;20125;-78
2021/06/21 01:35:51;;;;;;;14.25;10.70;;;;;;;20.57;100.00;100756.44;4844548;29;20360;-78
2021/06/21 01:38:44;;;;;;;12.98;10.38;;;;;;;20.74;100.00;100763.44;4844556;29;20029;-78
2021/06/21 01:41:40;;;;;;;14.27;10.48;;;;;;;20.86;100.00;100771.56;4843400;29;20026;-78
2021/06/21 01:44:30;;;;;;;14.93;10.60;;;;;;;20.70;100.00;100773.41;4843487;29;20053;-78
2021/06/21 01:47:17;;;;;;;16.48;12.88;;;;;;;20.66;100.00;100771.03;4844035;29;20033;-78
2021/06/21 01:50:05;;;;;;;12.77;11.20;;;;;;;20.58;100.00;100776.78;4844201;29;20478;-78
2021/06/21 01:53:13;;;;;;;13.55;12.15;;;;;;;20.82;100.00;100767.38;4843239;29;20049;-78
2021/06/21 01:56:24;;;;;;;19.90;12.35;;;;;;;20.47;100.00;100778.34;4843241;29;20065;-78
2021/06/21 01:59:11;;;;;;;16.98;13.05;;;;;;;20.23;100.00;100771.75;4843925;29;20463;-78
2021/06/21 02:01:59;;;;;;;18.83;13.82;;;;;;;20.33;100.00;100768.47;4843427;29;20073;-78
2021/06/21 02:04:48;;;;;;;14.38;12.52;;;;;;;20.42;100.00;100775.97;4843044;29;20030;-78
2021/06/21 02:07:36;;;;;;;16.92;13.65;;;;;;;20.57;100.00;100763.56;4843449;29;20029;-78
2021/06/21 02:10:23;;;;;;;14.65;13.15;;;;;;;20.71;100.00;100764.50;4842820;29;20034;-78
2021/06/21 02:13:08;;;;;;;15.13;13.52;;;;;;;20.81;100.00;100756.81;4842430;29;20053;-78
2021/06/21 02:15:55;;;;;;;14.10;12.70;;;;;;;20.62;100.00;100749.03;4843674;29;20032;-78
2021/06/21 02:18:43;;;;;;;17.60;12.13;;;;;;;20.33;100.00;100757.81;4843283;29;20066;-78
2021/06/21 02:21:29;;;;;;;18.10;12.60;;;;;;;20.44;100.00;100755.44;4842833;29;20033;-78
2021/06/21 02:24:18;;;;;;;15.60;11.75;;;;;;;20.55;100.00;100747.69;4843027;29;20029;-78
2021/06/21 02:27:05;;;;;;;15.05;13.05;;;;;;;20.35;100.00;100747.97;4842588;29;20112;-77
2021/06/21 02:29:54;;;;;;;14.88;12.13;;;;;;;20.42;100.00;100749.34;4842618;29;20030;-77
2021/06/21 02:32:43;;;;;;;16.25;11.40;;;;;;;20.42;100.00;100753.81;4842768;29;20041;-77
2021/06/21 02:35:30;;;;;;;13.95;11.38;;;;;;;20.50;100.00;100746.22;4843199;29;20022;-77
2021/06/21 02:38:16;;;;;;;16.92;11.68;;;;;;;20.54;100.00;100753.09;4843519;29;20349;-78
2021/06/21 02:41:03;;;;;;;14.80;11.50;;;;;;;20.36;100.00;100748.81;4843045;29;20045;-76
2021/06/21 02:43:49;;;;;;;13.85;11.45;;;;;;;20.51;100.00;100754.13;4842336;29;20038;-77
2021/06/21 02:46:35;;;;;;;15.32;11.25;;;;;;;20.70;100.00;100746.78;4842514;29;20053;-78
2021/06/21 02:49:21;;;;;;;15.45;11.23;;;;;;;20.85;100.00;100745.88;4842729;29;20029;-77
2021/06/21 02:52:53;;;;;;;13.93;11.95;;;;;;;20.59;100.00;100741.25;4842843;29;20026;-77
2021/06/21 02:55:48;;;;;;;18.20;12.10;;;;;;;20.19;100.00;100744.47;4825136;29;20399;-77
2021/06/21 02:58:42;;;;;;;14.20;11.02;;;;;;;20.19;100.00;100752.44;4842661;29;20034;-77
2021/06/21 03:01:28;;;;;;;13.23;11.75;;;;;;;20.45;100.00;100743.81;4843083;29;20037;-77
2021/06/21 03:04:15;;;;;;;13.65;11.10;;;;;;;20.59;100.00;100741.25;4842203;29;20546;-78
2021/06/21 03:07:02;;;;;;;18.33;11.85;;;;;;;20.51;100.00;100737.28;4842568;29;20045;-77
2021/06/21 03:09:48;;;;;;;13.20;11.82;;;;;;;20.76;100.00;100741.09;4842299;29;20041;-78
2021/06/21 03:12:35;;;;;;;14.95;12.23;;;;;;;20.56;100.00;100748.53;4842620;29;20046;-77
2021/06/21 03:15:24;;;;;;;17.63;12.73;;;;;;;20.37;100.00;100742.56;4842678;29;20037;-77
2021/06/21 03:18:11;;;;;;;14.95;12.18;;;;;;;20.42;100.00;100741.38;4842414;29;20029;-77
2021/06/21 03:21:00;;;;;;;19.48;12.00;;;;;;;20.73;100.00;100740.44;4842972;29;20034;-77
2021/06/21 03:23:52;;;;;;;16.17;13.20;;;;;;;20.67;100.00;100732.78;4842304;29;20083;-77
2021/06/21 03:26:38;;;;;;;20.70;13.98;;;;;;;20.89;100.00;100743.91;4842486;29;20424;-77
2021/06/21 03:29:24;;;;;;;19.45;13.68;;;;;;;20.71;100.00;100735.19;4843128;29;20025;-77
2021/06/21 03:32:24;;;;;;;22.90;13.50;;;;;;;21.03;100.00;100730.66;4843248;29;20106;-78
2021/06/21 03:35:12;;;;;;;16.23;13.40;;;;;;;21.02;100.00;100731.59;4842292;29;20022;-77
2021/06/21 03:38:11;;;;;;;23.08;14.25;;;;;;;21.01;100.00;100732.56;4842120;29;20038;-77
2021/06/21 03:41:02;;;;;;;20.55;14.38;;;;;;;20.96;100.00;100732.81;4844191;29;20026;-77
2021/06/21 03:43:48;;;;;;;19.80;13.75;;;;;;;20.84;100.00;100732.66;4845303;29;20037;-77
2021/06/21 03:46:34;;;;;;;20.13;13.45;;;;;;;20.89;100.00;100744.75;4845111;29;20030;-77
2021/06/21 03:49:20;;;;;;;20.98;14.05;;;;;;;20.95;100.00;100739.13;4846308;29;20080;-77
2021/06/21 03:52:06;;;;;;;24.30;14.15;;;;;;;21.18;100.00;100735.91;4845089;29;20475;-78
2021/06/21 03:55:06;;;;;;;19.92;14.18;;;;;;;21.16;100.00;100728.94;4845530;29;20405;-77
2021/06/21 03:57:54;;;;;;;23.30;15.57;;;;;;;21.15;100.00;100725.44;4844939;29;20034;-77
2021/06/21 04:00:40;;;;;;;19.25;14.95;;;;;;;21.34;100.00;100735.84;4844398;29;20041;-78
2021/06/21 04:03:26;;;;;;;23.58;16.30;;;;;;;21.42;100.00;100737.06;4845197;29;20120;-78
2021/06/21 04:06:12;;;;;;;22.17;16.63;;;;;;;21.26;100.00;100744.28;4845431;29;20044;-77
2021/06/21 04:08:58;;;;;;;23.67;16.33;;;;;;;21.14;100.00;100760.19;4845300;29;20045;-77
2021/06/21 04:11:44;;;;;;;19.77;15.68;;;;;;;21.20;100.00;100766.00;4845306;29;20105;-78
2021/06/21 04:14:29;;;;;;;22.73;15.32;;;;;;;21.32;100.00;100769.72;4845413;29;20352;-78
2021/06/21 04:17:15;;;;;;;19.55;16.05;;;;;;;21.03;100.00;100760.81;4844496;29;20026;-78
2021/06/21 04:20:04;;;;;;;16.30;13.93;;;;;;;21.04;100.00;100765.19;4844815;29;20045;-78
2021/06/21 04:22:50;;;;;;;19.83;14.52;;;;;;;21.05;100.00;100764.25;4844665;29;20056;-78
2021/06/21 04:25:36;;;;;;;17.88;12.93;;;;;;;21.38;100.00;100774.69;4845107;29;20030;-77
2021/06/21 04:28:22;;;;;;;15.75;12.55;;;;;;;21.43;100.00;100761.94;4844149;29;20109;-78
2021/06/21 04:31:08;;;;;;;18.40;12.18;;;;;;;21.51;100.00;100772.97;4844992;29;20120;-77
2021/06/21 04:33:54;;;;;;;16.73;11.73;;;;;;;21.66;100.00;100774.72;4844597;29;20038;-77
2021/06/21 04:36:40;;;;;;;13.93;11.35;;;;;;;22.08;100.00;100780.03;4844469;29;20394;-77
2021/06/21 04:39:26;;;;;;;15.27;11.63;;;;;;;21.84;100.00;100771.78;4844031;29;20075;-77
2021/06/21 04:42:11;;;;;;;15.05;10.98;;;;;;;21.98;100.00;100773.59;4844621;29;20033;-77
2021/06/21 04:44:57;;;;;;;15.68;10.50;;;;;;;21.72;100.00;100777.88;4844256;29;20046;-77
2021/06/21 04:47:44;;;;;;;11.27;10.07;;;;;;;22.12;100.00;100768.22;4844019;29;20368;-77
2021/06/21 04:50:30;;;;;;;17.92;11.68;;;;;;;22.05;100.00;100759.75;4844501;29;20046;-78
2021/06/21 04:53:16;;;;;;;11.10;10.00;;;;;;;22.28;100.00;100758.25;4843853;29;20072;-78
2021/06/21 04:56:02;;;;;;;11.27;10.10;;;;;;;22.26;100.00;100750.34;4844590;29;20026;-77
2021/06/21 04:58:48;;;;;;;13.60;10.68;;;;;;;22.37;100.00;100741.63;4843801;29;20034;-77
2021/06/21 05:01:34;;;;;;;18.08;12.18;;;;;;;22.19;100.00;100746.38;4844868;29;20109;-77
2021/06/21 05:04:19;;;;;;;15.73;11.90;;;;;;;22.38;100.00;100746.88;4832979;29;20046;-77
2021/06/21 05:07:05;;;;;;;16.63;12.77;;;;;;;22.56;100.00;100750.19;4846503;29;20029;-77
2021/06/21 05:09:51;;;;;;;14.23;10.93;;;;;;;22.72;100.00;100759.78;4844638;29;20038;-77
2021/06/21 05:12:37;;;;;;;17.08;10.95;;;;;;;22.80;100.00;100760.13;4845114;29;20107;-77
2021/06/21 05:15:23;;;;;;;16.35;11.40;;;;;;;23.01;100.00;100774.69;4844615;29;20054;-77
2021/06/21 05:18:09;;;;;;;17.98;13.73;;;;;;;22.79;100.00;100770.91;4845615;29;20072;-77
2021/06/21 05:20:55;;;;;;;13.45;11.93;;;;;;;22.83;100.00;100777.75;4845606;29;20436;-77
2021/06/21 05:23:40;;;;;;;19.45;13.18;;;;;;;23.15;100.00;100777.28;4845492;29;20034;-78
2021/06/21 05:26:26;;;;;;;19.55;13.23;;;;;;;22.94;100.00;100780.53;4844951;29;20137;-78
2021/06/21 05:29:12;;;;;;;15.05;12.82;;;;;;;23.13;100.00;100784.56;4843755;29;20033;-78
2021/06/21 05:32:00;;;;;;;16.30;13.88;;;;;;;22.93;100.00;100795.75;4843923;29;20105;-78
2021/06/21 05:34:46;;;;;;;14.60;11.82;;;;;;;22.73;100.00;100798.00;4843874;29;20093;-78
2021/06/21 05:37:32;;;;;;;17.88;11.77;;;;;;;22.93;100.00;100789.53;4844136;29;20098;-77
2021/06/21 05:40:18;;;;;;;14.07;12.10;;;;;;;22.60;100.00;100795.31;4843125;29;20034;-78
2021/06/21 05:43:03;;;;;;;15.73;12.13;;;;;;;22.95;100.00;100799.16;4843610;29;20030;-78
2021/06/21 05:45:49;;;;;;;12.65;11.35;;;;;;;23.19;100.00;100800.16;4842685;29;20049;-78
2021/06/21 05:48:35;;;;;;;13.07;11.70;;;;;;;23.26;100.00;100800.63;4843783;29;20057;-78
2021/06/21 05:51:21;;;;;;;12.93;10.40;;;;;;;23.39;100.00;100799.69;4843205;29;20065;-77
2021/06/21 05:54:07;;;;;;;12.95;11.63;;;;;;;23.40;100.00;100796.06;4843787;29;20071;-78
2021/06/21 05:56:52;;;;;;;13.40;11.25;;;;;;;23.57;100.00;100802.94;4843083;29;20030;-76
2021/06/21 05:59:38;;;;;;;14.70;11.23;;;;;;;23.59;100.00;100802.81;4843123;29;20040;-76
2021/06/21 06:02:25;;;;;;;13.82;12.40;;;;;;;23.65;100.00;100799.72;4843048;29;20182;-77
2021/06/21 06:05:12;;;;;;;17.08;11.95;;;;;;;23.68;100.00;100799.50;4842944;29;20030;-78
2021/06/21 06:07:58;;;;;;;14.38;11.20;;;;;;;24.05;100.00;100804.84;4843369;29;20026;-77
2021/06/21 06:10:43;;;;;;;17.65;11.73;;;;;;;24.10;100.00;100802.69;4842550;29;20094;-77
2021/06/21 06:13:29;;;;;;;13.90;11.27;;;;;;;24.16;100.00;100806.75;4843179;29;20033;-76
2021/06/21 06:16:15;;;;;;;13.88;11.20;;;;;;;24.01;100.00;100797.13;4842729;29;20030;-77
2021/06/21 06:19:01;;;;;;;15.05;10.43;;;;;;;24.21;100.00;100791.22;4843625;29;20070;-79
2021/06/21 06:21:47;;;;;;;12.90;10.52;;;;;;;24.58;100.00;100796.44;4842649;29;20038;-77
2021/06/21 06:24:34;;;;;;;9.85;8.75;;;;;;;24.81;100.00;100787.59;4843236;29;20061;-77
2021/06/21 06:27:20;;;;;;;14.38;11.27;;;;;;;24.23;100.00;100790.13;4843689;29;20504;-77
2021/06/21 06:30:07;;;;;;;11.05;9.93;;;;;;;24.56;100.00;100795.72;4842918;29;20535;-78
2021/06/21 06:32:53;;;;;;;12.52;10.82;;;;;;;24.60;100.00;100797.22;4843660;29;20044;-78
2021/06/21 06:35:39;;;;;;;15.02;10.60;;;;;;;24.33;100.00;100793.00;4842652;29;20074;-78
2021/06/21 06:38:25;;;;;;;12.93;10.90;;;;;;;24.38;100.00;100798.88;4842660;29;20066;-78
2021/06/21 06:41:10;;;;;;;11.48;9.15;;;;;;;24.38;100.00;100806.91;4842504;29;20026;-78
2021/06/21 06:43:56;;;;;;;12.00;9.20;;;;;;;24.71;100.00;100799.97;4843386;29;20034;-77
2021/06/21 06:46:42;;;;;;;10.50;8.18;;;;;;;24.37;100.00;100799.84;4843191;29;20041;-77
2021/06/21 06:49:28;;;;;;;13.07;9.70;;;;;;;24.49;100.00;100799.81;4843967;29;20045;-77
2021/06/21 06:52:15;;;;;;;13.32;7.97;;;;;;;24.77;100.00;100798.66;4842957;29;20030;-77
2021/06/21 06:58:06;;;;;;;6.25;5.50;;;;;;;24.89;100.00;100795.06;4843030;29;20053;-78
2021/06/21 07:00:52;;;;;;;5.82;4.97;;;;;;;24.75;100.00;100796.06;4843651;29;20030;-77
2021/06/21 07:03:40;;;;;;;4.80;4.13;;;;;;;24.74;100.00;100794.38;4843248;29;20029;-77
2021/06/21 07:06:25;;;;;;;4.25;3.85;;;;;;;24.56;100.00;100794.84;4843369;29;20044;-78
2021/06/21 07:09:11;;;;;;;6.65;4.10;;;;;;;24.43;100.00;100794.88;4843494;29;20042;-78
2021/06/21 07:11:58;;;;;;;4.68;3.65;;;;;;;24.98;100.00;100791.66;4843197;29;20037;-77
2021/06/21 07:14:44;;;;;;;4.47;4.07;;;;;;;25.08;100.00;100788.16;4843679;29;20345;-77
2021/06/21 07:17:29;;;;;;;5.38;4.10;;;;;;;25.25;100.00;100792.25;4846627;29;20108;-77
2021/06/21 07:20:15;;;;;;;6.32;4.10;;;;;;;25.73;100.00;100789.34;4846466;29;20105;-77
2021/06/21 07:23:01;;;;;;;4.28;3.88;;;;;;;25.77;100.00;100798.00;4846232;29;20109;-77
2021/06/21 07:25:47;;;;;;;7.63;3.65;;;;;;;26.55;100.00;100791.59;4847007;29;20090;-77
2021/06/21 07:28:34;;;;;;;7.50;4.10;;;;;;;26.36;100.00;100789.56;4846382;29;20038;-77
2021/06/21 07:31:25;;;;;;;4.95;4.03;;;;;;;26.46;100.00;100793.22;4846496;29;20030;-77
2021/06/21 07:34:11;;;;;;;5.78;3.70;;;;;;;26.37;100.00;100793.13;4848230;29;20061;-77
2021/06/21 07:36:57;;;;;;;3.97;3.67;;;;;;;26.38;100.00;100797.50;4853015;29;20029;-77
2021/06/21 07:39:43;;;;;;;4.75;3.60;;;;;;;26.31;100.00;100799.84;4851420;29;20030;-78
2021/06/21 07:42:29;;;;;;;5.47;4.47;;;;;;;26.07;100.00;100796.44;4852125;29;20034;-77
2021/06/21 07:45:15;;;;;;;6.22;5.38;;;;;;;26.20;100.00;100797.16;4853336;29;20125;-77
2021/06/21 07:48:01;;;;;;;10.13;6.07;;;;;;;27.11;100.00;100801.22;4853317;29;20034;-77
2021/06/21 07:50:47;;;;;;;6.25;5.70;;;;;;;26.81;100.00;100798.41;4853906;29;20049;-77
2021/06/21 08:03:11;;;;;;;7.72;5.47;;;;;;;27.51;100.00;100785.25;5248972;23;20066;-76
2021/06/21 08:06:01;;;;;;;7.35;4.88;;;;;;;27.53;100.00;100794.91;4847340;29;20366;-76
2021/06/21 08:08:47;;;;;;;7.40;5.00;;;;;;;27.81;100.00;100796.91;4845441;29;20110;-76
2021/06/21 08:11:33;;;;;;;6.78;5.28;;;;;;;27.41;100.00;100802.16;4845127;29;20041;-77
2021/06/21 08:14:19;;;;;;;8.50;5.28;;;;;;;28.01;100.00;100805.94;4847243;29;20041;-77
2021/06/21 08:17:05;;;;;;;8.10;5.38;;;;;;;27.84;100.00;100801.19;4844847;29;20120;-77
2021/06/21 08:20:31;;;;;;;6.88;5.03;;;;;;;28.65;100.00;100799.22;4846944;29;20038;-77
2021/06/21 08:23:22;;;;;;;5.60;4.68;;;;;;;28.18;100.00;100800.78;4954578;23;20091;-77
2021/06/21 08:26:09;;;;;;;6.43;4.72;;;;;;;27.98;100.00;100806.22;4845043;29;20046;-76
2021/06/21 08:28:54;;;;;;;6.22;4.65;;;;;;;27.99;100.00;100806.06;4844966;29;20046;-77
2021/06/21 08:31:40;;;;;;;9.63;4.30;;;;;;;27.48;100.00;100808.75;4846638;29;20038;-76
2021/06/21 08:34:26;;;;;;;12.20;4.53;;;;;;;27.89;100.00;100813.28;4846165;29;20018;-76
2021/06/21 08:37:12;;;;;;;4.00;3.60;;;;;;;28.21;100.00;100803.16;4846163;29;20050;-76
2021/06/21 08:39:58;;;;;;;3.47;2.90;;;;;;;28.01;100.00;100808.66;4846136;29;20090;-76
2021/06/21 08:42:43;;;;;;;5.85;3.42;;;;;;;28.69;100.00;100801.47;4846742;29;20117;-76
2021/06/21 08:45:33;;;;;;;7.82;4.32;;;;;;;28.76;100.00;100808.03;4846895;29;20034;-77
2021/06/21 08:48:19;;;;;;;5.03;4.50;;;;;;;28.72;100.00;100814.69;4847298;29;20376;-77
2021/06/21 08:51:05;;;;;;;4.80;4.28;;;;;;;28.37;100.00;100805.38;4849705;29;20026;-77
2021/06/21 08:53:51;;;;;;;5.20;4.18;;;;;;;28.47;100.00;100817.06;4847924;29;20037;-77
2021/06/21 08:56:37;;;;;;;6.82;4.80;;;;;;;28.52;100.00;100812.13;4848697;29;20054;-77
2021/06/21 08:59:23;;;;;;;7.10;4.05;;;;;;;28.78;100.00;100808.75;4846510;29;20050;-77
2021/06/21 09:02:12;;;;;;;7.43;4.70;;;;;;;29.29;100.00;100806.66;4848589;29;20345;-78
2021/06/21 09:04:57;;;;;;;8.85;5.00;;;;;;;29.47;100.00;100806.78;4847588;29;20042;-77
2021/06/21 09:07:47;;;;;;;8.23;5.22;;;;;;;29.34;100.00;100812.50;4848430;29;20069;-77
2021/06/21 09:10:36;;;;;;;7.53;5.75;;;;;;;28.73;100.00;100802.91;4846990;29;20041;-76
2021/06/21 09:13:22;;;;;;;6.13;5.28;;;;;;;28.64;100.00;100803.75;4848596;29;20044;-77
2021/06/21 09:16:08;;;;;;;6.63;5.50;;;;;;;28.60;100.00;100805.03;4850624;29;20026;-77
2021/06/21 09:19:01;;;;;;;12.30;5.50;;;;;;;29.22;100.00;100805.53;4849649;29;20029;-77
2021/06/21 09:21:47;;;;;;;7.38;6.03;;;;;;;29.11;100.00;100804.81;4851488;29;20431;-78
2021/06/21 09:24:38;;;;;;;8.18;5.03;;;;;;;28.78;100.00;100805.19;4852153;29;20069;-77
2021/06/21 09:27:26;;;;;;;5.75;5.15;;;;;;;29.07;100.00;100809.66;4849833;29;20130;-77
2021/06/21 09:30:13;;;;;;;10.80;5.60;;;;;;;28.85;100.00;100809.03;4850118;29;20029;-78
2021/06/21 09:33:01;;;;;;;6.53;4.82;;;;;;;29.01;100.00;100803.97;4850037;29;20044;-78
2021/06/21 09:35:47;;;;;;;6.18;5.10;;;;;;;28.76;100.00;100813.44;4851297;29;20106;-77
2021/06/21 09:38:35;;;;;;;6.45;5.32;;;;;;;28.47;100.00;100806.28;4849919;29;20042;-78
2021/06/21 09:41:21;;;;;;;11.55;6.30;;;;;;;28.70;100.00;100814.00;4848224;29;20044;-77
2021/06/21 09:44:07;;;;;;;11.70;6.85;;;;;;;28.03;100.00;100810.22;4848416;29;20081;-77
2021/06/21 09:47:13;;;;;;;7.03;5.50;;;;;;;27.77;100.00;100803.53;4849807;29;20034;-77
2021/06/21 09:50:26;;;;;;;19.25;6.75;;;;;;;27.84;100.00;100801.19;4851227;29;20027;-77
2021/06/21 09:53:12;;;;;;;8.00;6.18;;;;;;;28.10;100.00;100803.28;4852612;29;20041;-77
2021/06/21 09:55:58;;;;;;;8.05;6.10;;;;;;;28.06;100.00;100801.00;4850759;29;20068;-78
2021/06/21 09:58:44;;;;;;;11.73;6.10;;;;;;;28.18;100.00;100800.78;4850771;29;20041;-77
2021/06/21 10:01:30;;;;;;;9.13;5.70;;;;;;;28.36;100.00;100793.72;4851784;29;20352;-77
2021/06/21 10:04:24;;;;;;;5.55;5.00;;;;;;;28.52;100.00;100799.47;4848917;29;20125;-76
2021/06/21 10:07:35;;;;;;;6.82;5.32;;;;;;;28.47;100.00;100790.97;4846061;29;20037;-77
2021/06/21 10:10:21;;;;;;;9.13;4.82;;;;;;;28.97;100.00;100789.03;4847445;29;20455;-77
2021/06/21 10:13:11;;;;;;;10.23;4.28;;;;;;;29.43;100.00;100798.13;4846920;29;20121;-76
2021/06/21 10:15:57;;;;;;;7.72;3.80;;;;;;;30.45;100.00;100793.50;4843144;29;20025;-78
2021/06/21 10:18:43;;;;;;;6.15;3.97;;;;;;;30.61;99.41;100790.13;4843374;29;20045;-77
2021/06/21 10:21:29;;;;;;;7.35;4.28;;;;;;;30.25;99.80;100786.50;4842995;29;20124;-77
2021/06/21 10:24:15;;;;;;;5.07;3.97;;;;;;;30.65;100.00;100797.78;4844112;29;20062;-78
2021/06/21 10:27:05;;;;;;;12.20;4.10;;;;;;;30.46;100.00;100787.09;4844473;29;20038;-78
2021/06/21 10:29:51;;;;;;;7.70;3.67;;;;;;;30.76;97.85;100788.63;4844289;29;20044;-78
2021/06/21 10:32:37;;;;;;;4.75;3.50;;;;;;;31.05;97.33;100791.94;4842842;29;20508;-78
2021/06/21 10:35:29;;;;;;;8.43;4.57;;;;;;;31.04;100.00;100791.13;4842495;29;20030;-78
2021/06/21 10:38:18;;;;;;;8.80;4.45;;;;;;;31.53;96.09;100802.38;4844255;29;20030;-77
2021/06/21 10:41:08;;;;;;;6.63;4.38;;;;;;;31.46;97.27;100793.19;4843216;29;20110;-78
2021/06/21 10:43:54;;;;;;;3.92;3.03;;;;;;;30.78;96.03;100794.75;4843157;29;20057;-78
2021/06/21 10:46:40;;;;;;;9.48;4.00;;;;;;;30.87;97.49;100800.06;4843180;29;20057;-78
2021/06/21 10:49:25;;;;;;;6.18;3.30;;;;;;;30.10;94.71;100785.25;4845577;29;20038;-78
2021/06/21 10:52:34;;;;;;;8.25;3.10;;;;;;;30.09;98.07;100777.31;4847837;29;20026;-78
2021/06/21 10:55:26;;;;;;;7.00;3.30;;;;;;;30.01;100.00;100777.22;4849469;29;20034;-77
2021/06/21 10:58:20;;;;;;;7.57;4.55;;;;;;;30.67;96.12;100776.84;4848436;29;20345;-78
2021/06/21 11:01:14;;;;;;;5.75;4.13;;;;;;;30.80;98.81;100781.91;4848538;29;20089;-78
2021/06/21 11:04:00;;;;;;;9.18;4.68;;;;;;;30.72;99.10;100788.09;4846202;29;20045;-78
2021/06/21 11:06:48;;;;;;;6.45;4.30;;;;;;;30.94;99.15;100784.09;4848595;29;20053;-76
2021/06/21 11:09:51;;;;;;;9.35;4.88;;;;;;;31.14;96.97;100791.88;4847369;29;20470;-77
2021/06/21 11:12:41;;;;;;;8.25;4.68;;;;;;;31.15;94.32;100782.72;4847832;29;20033;-77
2021/06/21 11:15:27;;;;;;;6.38;4.65;;;;;;;30.67;100.00;100778.69;4847478;29;20400;-78
2021/06/21 11:18:23;;;;;;;5.35;3.80;;;;;;;30.83;97.06;100782.44;4846025;29;20129;-78
2021/06/21 11:21:17;;;;;;;8.50;4.60;;;;;;;30.05;99.19;100776.75;4846688;29;20067;-78
2021/06/21 11:24:03;;;;;;;9.13;4.55;;;;;;;31.28;93.95;100777.81;4847919;29;20062;-77
2021/06/21 11:27:03;;;;;;;8.18;4.60;;;;;;;31.31;96.48;100772.06;4845688;29;20053;-77
2021/06/21 11:29:55;;;;;;;6.63;4.60;;;;;;;31.71;94.79;100776.94;4845989;29;20034;-77
2021/06/21 11:33:04;;;;;;;9.60;4.85;;;;;;;31.59;95.42;100766.50;4848447;29;20034;-77
2021/06/21 11:35:50;;;;;;;6.60;4.72;;;;;;;30.68;99.11;100759.63;4846286;29;20121;-77
2021/06/21 11:38:39;;;;;;;8.15;4.30;;;;;;;30.71;96.67;100763.91;4846532;29;20445;-76
2021/06/21 11:41:28;;;;;;;6.93;4.50;;;;;;;30.75;97.45;100760.75;4847131;29;20036;-77
2021/06/21 11:44:34;;;;;;;8.38;4.57;;;;;;;31.54;95.67;100760.72;4846187;29;20036;-77
2021/06/21 11:47:30;;;;;;;6.03;4.60;;;;;;;30.60;100.00;100759.53;4846117;29;20044;-78
2021/06/21 11:50:16;;;;;;;5.47;4.80;;;;;;;30.25;100.00;100755.91;4847636;29;20038;-76
2021/06/21 11:53:02;;;;;;;7.03;5.00;;;;;;;30.27;100.00;100753.91;4846847;29;20067;-76
2021/06/21 11:55:48;;;;;;;8.20;4.88;;;;;;;30.63;100.00;100751.13;4847420;29;20030;-76
2021/06/21 11:58:34;;;;;;;6.32;5.28;;;;;;;29.98;100.00;100748.63;4846343;29;20040;-76
2021/06/21 12:01:25;;;;;;;7.30;5.22;;;;;;;30.17;100.00;100751.25;4845587;29;20059;-78
2021/06/21 12:04:10;;;;;;;6.25;5.38;;;;;;;29.77;100.00;100749.88;4845043;29;20038;-78
2021/06/21 12:06:57;;;;;;;11.00;6.50;;;;;;;29.93;100.00;100748.22;4848078;29;20029;-77
2021/06/21 12:09:53;;;;;;;9.85;5.75;;;;;;;29.61;100.00;100755.06;4850648;29;20026;-77
2021/06/21 12:12:41;;;;;;;10.15;8.23;;;;;;;30.19;100.00;100745.72;4848794;29;20066;-77
2021/06/21 12:15:30;;;;;;;8.88;6.00;;;;;;;29.70;100.00;100752.28;4847737;29;20025;-76
2021/06/21 12:18:26;;;;;;;8.55;6.25;;;;;;;30.07;100.00;100739.63;4848738;29;20030;-77
2021/06/21 12:21:12;;;;;;;10.38;6.13;;;;;;;30.20;100.00;100739.28;4851084;29;20025;-77
2021/06/21 12:24:25;;;;;;;6.55;4.97;;;;;;;30.59;100.00;100738.91;4848790;29;20552;-76
2021/06/21 12:27:11;;;;;;;6.90;5.05;;;;;;;31.56;99.78;100743.31;4847404;29;20042;-78
2021/06/21 12:29:57;;;;;;;5.47;4.85;;;;;;;30.92;100.00;100745.50;4847367;29;20345;-76
2021/06/21 12:32:43;;;;;;;8.50;5.00;;;;;;;31.13;100.00;100746.84;4847292;29;20037;-77
2021/06/21 12:35:29;;;;;;;8.10;4.80;;;;;;;30.73;100.00;100746.50;4848967;29;20026;-77
2021/06/21 12:38:14;;;;;;;5.28;4.75;;;;;;;30.87;100.00;100750.53;4853316;29;20037;-77
2021/06/21 12:41:23;;;;;;;5.90;4.55;;;;;;;31.38;100.00;100746.06;4850998;29;20030;-77
2021/06/21 12:44:12;;;;;;;8.10;4.97;;;;;;;30.74;100.00;100745.50;4850712;29;20094;-77
2021/06/21 12:46:58;;;;;;;9.70;5.05;;;;;;;30.97;100.00;100745.88;4849768;29;20049;-77
2021/06/21 12:49:45;;;;;;;8.23;4.95;;;;;;;31.51;100.00;100745.66;4850973;29;20037;-77
2021/06/21 12:52:32;;;;;;;5.65;4.90;;;;;;;31.22;98.49;100739.66;4848490;29;20124;-76
2021/06/21 12:55:26;;;;;;;7.68;4.80;;;;;;;30.76;100.00;100729.97;4846727;29;20026;-76
2021/06/21 12:58:12;;;;;;;7.30;4.28;;;;;;;31.05;100.00;100738.66;4845597;29;20045;-76
2021/06/21 13:01:00;;;;;;;11.07;4.63;;;;;;;30.68;100.00;100731.69;4848216;29;20118;-76